Air Resources Laboratory banner image
Air Resources Laboratory web site National Oceanic and Atmospheric Administration (NOAA)

va metar


KAKQ 140754Z AUTO 22007KT 10SM CLR 02/M07 A2964 RMK AO2 SLP041 T00221067 $=
KAVC 140755Z AUTO 21009G16KT 10SM CLR 03/M07 A2969 RMK AO2 T00281072=
KBCB 140755Z AUTO 26009G20KT 200V310 10SM CLR 04/M06 A2957 RMK AO2 T00411056=
KCHO 140753Z AUTO 19010KT 10SM CLR 01/M09 A2951 RMK AO2 SLP995 T00061089=
KCJR 140755Z AUTO 21007KT 10SM SCT070 BKN085 01/M10 A2952 RMK AO2 T00091098=
KCPK 140755Z AUTO 20007KT 10SM CLR 02/M06 A2968 RMK AO2 T00151061=
KDAA 140756Z AUTO 19004KT 10SM CLR 02/M07 A2952 RMK AO2 SLP000 T00221074 $=
KDAN 140753Z AUTO 23006KT 10SM CLR 00/M08 A2964 RMK AO2 SLP035 T00001078=
KDCA 140752Z 19009KT 10SM SCT100 02/M08 A2953 RMK AO2 SLP000 T00171078=
KEZF 140755Z AUTO 19009KT 10SM CLR 01/M07 A2954 RMK AO2 T00141070=
KFAF 140756Z AUTO 21010G15KT 10SM CLR 04/M07 A2961 RMK AO2 SLP030 T00401066 $=
KFKN 140755Z AUTO 20010G16KT 10SM CLR 03/M07 A2966 RMK AO2 T00291066=
KFVX 140755Z AUTO 22008KT 10SM CLR 04/M06 A2957 RMK AO2 T00361065=
KHEF 140756Z AUTO 20003KT 10SM BKN075 00/M08 A2952 RMK AO2 SLP009 T00001078
 FZRANO=
KHLX 140755Z AUTO 26010G18KT 10SM SCT047 04/M06 A2957 RMK AO2 T00361065=
KHSP 140755Z AUTO 28022G30KT 10SM OVC048 00/M09 A2942 RMK AO2 T00001092=
KIAD 140752Z 18007KT 10SM BKN075 00/M09 A2950 RMK AO2 SLP993 T00001094=
KJYO 140755Z AUTO 19004KT 10SM SCT055 OVC075 00/M07 A2950 RMK AO2=
KLFI 140756Z AUTO 21013KT 10SM CLR 04/M06 A2964 RMK AO2 SLP044 T00351065=
KLKU 140755Z AUTO 20006KT 10SM CLR 01/M09 A2958 RMK AO2 T00091091=
KLNP 140755Z AUTO 23010KT 10SM BKN043 01/M06 A2966 RMK AO2=
KLYH 140754Z AUTO 20009KT 10SM CLR 01/M09 A2956 RMK AO2 SLP013 T00111089=
KMFV 140755Z AUTO 23014G21KT 10SM SCT100 05/M04 A2960 RMK AO2 T00461045=
KMKJ 140755Z AUTO 27022G27KT 10SM CLR 02/M10 A2963 RMK AO2 T00241096=
KMTV 140755Z AUTO 25004KT 10SM CLR 00/M10 A2965 RMK AO2 T00011096=
KNGU 140759Z 20013G21KT 10SM FEW070 04/M07 A2966 RMK AO2 SLP043 T00441067=
KNTU 140756Z 22015G21KT 10SM CLR 04/M08 A2966 RMK AO2 SLP046 T00391078=
KNYG 140756Z AUTO 22008KT 10SM SCT075 03/M07 A2955 RMK AO2 SLP007 T00331072=
KOFP 140754Z AUTO 18008KT 10SM CLR 02/M08 A2959 RMK AO2 SLP022 T00221083=
KOKV 140755Z AUTO 15003KT 10SM OVC075 M02/M09 A2945 RMK AO2=
KOMH 140755Z AUTO 00000KT 10SM SCT080 00/M08 A2952 RMK AO2=
KORF 140751Z 22016KT 10SM CLR 04/M07 A2964 RMK AO2 SLP038 T00391067=
KPHF 140754Z AUTO 23013G24KT 10SM CLR 03/M06 A2965 RMK AO2 SLP039 T00331061=
KPSK 140755Z AUTO 23011G15KT 10SM BKN050 04/M06 A2957 RMK AO2 T00421060=
KPTB 140758Z AUTO 20005KT 10SM CLR 02/M09 A2962 RMK AO2=
KRIC 140754Z 19011KT 10SM FEW080 03/M07 A2960 RMK AO2 SLP027 T00331072=
KROA 140754Z 26011G16KT 10SM CLR 06/M07 A2956 RMK AO2 SLP012 T00611072=
KSFQ 140755Z AUTO 21009KT 10SM CLR 03/M06 A2968 RMK AO2 T00301060=
KSHD 140755Z AUTO 20007KT 10SM CLR 01/M09 A2949 RMK AO2 T00081086=
KVJI 140755Z AUTO 27012G19KT 10SM OVC050 05/M07 A2969 RMK AO2 T00511066=
KWAL 140754Z AUTO 22010KT 10SM FEW100 03/M05 A2959 RMK AO2 SLP018 T00331050=